Time;durP1;ratioP1;P1;durP2;ratioP2;P2;SDS_P1;SDS_P2;PMS_P1;PMS_P2;Temp;Humidity;BMP_temperature;BMP_pressure;BME280_temperature;BME280_humidity;BME280_pressure;Samples;Min_cycle;Max_cycle;Signal;HPM_P1;HPM_P2
2023/07/08 00:00:55;;;;;;;10.85;8.50;;;17.90;96.70;;;18.86;57.82;98032.09;10313545;28;20322;-65
2023/07/08 00:05:59;;;;;;;8.73;7.32;;;17.90;95.90;;;18.65;57.58;98027.16;10326856;28;20239;-65
2023/07/08 00:11:05;;;;;;;9.30;7.38;;;17.80;95.40;;;18.80;57.75;98028.44;10314717;28;20227;-66
2023/07/08 00:16:12;;;;;;;8.63;7.75;;;17.80;95.80;;;18.69;58.53;98029.00;10319834;28;20231;-66
2023/07/08 00:21:18;;;;;;;8.30;7.47;;;17.70;96.30;;;18.60;58.99;98015.81;10323061;28;20253;-65
2023/07/08 00:26:24;;;;;;;7.10;6.40;;;17.70;96.40;;;18.54;59.26;98005.28;10323692;28;20223;-65
2023/07/08 00:31:31;;;;;;;8.15;7.35;;;17.60;96.80;;;18.43;59.91;98001.53;10317565;28;20231;-66
2023/07/08 00:36:36;;;;;;;7.68;6.78;;;17.40;97.40;;;18.34;60.28;97999.56;10321969;28;20985;-66
2023/07/08 00:41:42;;;;;;;9.30;7.57;;;17.40;97.90;;;18.26;61.08;98008.81;10364751;23;20885;-65
2023/07/08 00:46:58;;;;;;;8.38;7.00;;;17.30;98.20;;;18.27;60.84;98010.53;10358374;28;20223;-66
2023/07/08 00:52:23;;;;;;;8.32;7.07;;;17.30;98.00;;;18.14;61.04;98009.31;10356117;28;20598;-65
2023/07/08 00:57:31;;;;;;;9.30;7.78;;;17.20;98.10;;;18.05;61.33;98014.19;10363713;28;20226;-65
2023/07/08 01:02:40;;;;;;;8.50;6.40;;;17.10;98.30;;;17.93;61.41;98017.28;10360433;28;20226;-66
2023/07/08 01:07:51;;;;;;;8.13;7.32;;;17.00;98.10;;;17.95;60.41;98019.94;10358748;28;20714;-66
2023/07/08 01:13:00;;;;;;;9.25;7.53;;;16.90;98.30;;;17.79;61.72;98018.56;10353754;28;20218;-66
2023/07/08 01:18:04;;;;;;;9.82;6.95;;;16.80;98.60;;;17.78;61.86;97999.59;10363002;28;20238;-66
2023/07/08 01:23:08;;;;;;;8.75;7.28;;;16.80;98.50;;;17.70;61.12;98000.16;10357434;28;20313;-66
2023/07/08 01:28:12;;;;;;;7.63;6.80;;;16.80;98.00;;;17.73;60.93;98006.28;10358939;28;20234;-67
2023/07/08 01:33:21;;;;;;;7.72;6.97;;;16.80;98.50;;;17.60;61.51;98011.94;10351865;28;20264;-66
2023/07/08 01:38:28;;;;;;;7.47;6.78;;;16.70;98.60;;;17.55;61.63;98011.78;10357630;28;20230;-66
2023/07/08 01:43:31;;;;;;;8.15;7.35;;;16.60;99.00;;;17.49;62.59;98014.16;10352557;28;20532;-68
2023/07/08 01:48:39;;;;;;;7.70;6.93;;;16.50;99.30;;;17.45;62.14;98004.53;10350170;28;20571;-66
2023/07/08 01:53:44;;;;;;;8.27;7.45;;;16.50;99.30;;;17.42;62.28;98007.03;10337455;28;20218;-65
2023/07/08 01:58:47;;;;;;;7.78;6.97;;;16.40;99.00;;;17.32;62.26;98002.41;10357708;28;20317;-66
2023/07/08 02:03:51;;;;;;;8.40;7.25;;;16.30;99.30;;;17.22;62.89;97988.28;10328313;28;21220;-68
2023/07/08 02:08:58;;;;;;;7.78;6.97;;;16.20;99.80;;;17.19;62.61;97983.03;10309927;28;21034;-66
2023/07/08 02:14:03;;;;;;;7.57;6.80;;;16.20;99.20;;;17.11;61.56;97990.53;10311087;28;20225;-66
2023/07/08 02:19:06;;;;;;;8.45;6.85;;;16.10;99.40;;;17.02;62.66;98000.53;10390835;28;20763;-66
2023/07/08 02:24:11;;;;;;;7.70;6.90;;;16.00;99.50;;;16.92;62.82;97995.91;10393383;28;20606;-66
2023/07/08 02:29:14;;;;;;;8.70;7.53;;;16.00;99.60;;;16.89;61.62;97991.50;10396235;28;20519;-66
2023/07/08 02:34:17;;;;;;;7.95;7.15;;;16.00;98.80;;;16.92;61.50;97997.63;10389885;28;20265;-66
2023/07/08 02:39:22;;;;;;;8.00;7.20;;;16.10;98.50;;;16.99;61.89;98010.75;10355936;28;1061063;-67
2023/07/08 02:44:26;;;;;;;7.78;6.88;;;16.10;98.80;;;16.91;62.22;98008.75;10396082;28;20709;-66
2023/07/08 02:49:31;;;;;;;7.72;6.93;;;16.00;99.00;;;16.88;61.68;98007.84;10388957;28;20232;-66
2023/07/08 02:54:35;;;;;;;7.57;6.88;;;16.00;98.80;;;16.87;62.22;98007.78;10390552;28;20598;-66
2023/07/08 02:59:39;;;;;;;8.82;7.15;;;16.00;99.00;;;16.84;62.63;98008.53;10391661;28;20233;-66
2023/07/08 03:04:42;;;;;;;7.82;7.03;;;15.90;99.60;;;16.80;62.63;98023.88;10399068;28;20249;-65
2023/07/08 03:09:46;;;;;;;7.45;6.38;;;15.90;99.70;;;16.72;62.90;98036.47;10393356;28;20237;-65
2023/07/08 03:14:49;;;;;;;8.10;7.05;;;15.80;99.70;;;16.64;63.84;98043.94;10390251;28;20271;-65
2023/07/08 03:19:53;;;;;;;7.32;6.63;;;15.70;99.90;;;16.61;64.11;98049.00;10389484;28;20232;-65
2023/07/08 03:24:57;;;;;;;8.15;7.35;;;15.80;99.90;;;16.55;62.50;98058.22;10393183;28;20229;-66
2023/07/08 03:30:00;;;;;;;7.13;6.43;;;15.70;99.20;;;16.55;62.81;98053.94;10396267;28;20233;-68
2023/07/08 03:35:04;;;;;;;8.23;7.07;;;15.70;99.30;;;16.73;62.27;98068.31;10389654;28;20245;-68
2023/07/08 03:40:11;;;;;;;8.05;7.25;;;15.90;99.10;;;16.75;63.63;98067.56;10388059;28;20233;-67
2023/07/08 03:45:15;;;;;;;8.05;7.25;;;15.80;99.90;;;16.62;63.43;98057.59;10392132;28;20325;-65
2023/07/08 03:50:22;;;;;;;7.07;6.38;;;15.70;99.90;;;16.62;61.84;98058.47;10392776;28;20225;-66
2023/07/08 03:55:29;;;;;;;8.77;6.88;;;15.80;99.00;;;16.65;63.54;98048.28;10393280;28;20225;-65
2023/07/08 04:00:32;;;;;;;7.95;7.15;;;15.70;99.90;;;16.59;64.02;98071.28;10389484;28;20225;-65
2023/07/08 04:05:35;;;;;;;7.57;6.78;;;15.60;99.90;;;16.35;64.30;98050.63;10390143;28;20225;-68
2023/07/08 04:10:40;;;;;;;8.25;7.45;;;15.60;99.90;;;16.51;64.50;98052.06;10391981;28;20293;-66
2023/07/08 04:15:43;;;;;;;7.90;7.10;;;15.80;99.90;;;16.75;64.17;98046.03;10388546;28;20309;-66
2023/07/08 04:20:52;;;;;;;8.20;7.40;;;16.00;99.90;;;16.89;63.13;98044.84;10389344;28;20233;-67
2023/07/08 04:26:00;;;;;;;7.20;6.47;;;16.10;99.80;;;17.04;63.88;98045.38;10386291;28;20237;-65
2023/07/08 04:31:03;;;;;;;7.90;7.10;;;16.20;99.90;;;17.11;63.21;98041.28;10386453;28;20234;-67
2023/07/08 04:36:13;;;;;;;7.68;6.75;;;16.30;99.90;;;17.20;62.36;98051.97;10387170;28;20309;-67
2023/07/08 04:41:18;;;;;;;7.35;6.65;;;16.50;99.00;;;17.48;62.29;98051.19;10395847;28;20222;-67
2023/07/08 04:46:34;;;;;;;7.65;6.95;;;16.70;99.40;;;17.73;62.09;98044.22;10384956;28;20292;-67
2023/07/08 04:51:38;;;;;;;7.05;6.35;;;16.90;99.50;;;18.07;61.46;98041.00;10395243;28;20253;-67
2023/07/08 04:56:45;;;;;;;7.55;6.75;;;17.40;99.00;;;19.13;58.08;98046.63;10395364;28;20785;-66
2023/07/08 05:01:48;;;;;;;7.13;6.40;;;18.30;96.90;;;20.34;53.41;98038.28;10402650;28;20230;-65
2023/07/08 05:06:52;;;;;;;8.25;7.35;;;19.10;94.30;;;21.38;49.86;98032.56;10381509;28;20230;-65
2023/07/08 05:11:57;;;;;;;7.55;6.57;;;20.40;91.50;;;22.54;46.84;98032.53;10381356;28;20238;-65
2023/07/08 05:17:00;;;;;;;8.00;7.18;;;21.40;89.70;;;23.61;44.21;98024.13;10381947;28;20229;-65
2023/07/08 05:22:03;;;;;;;7.07;6.38;;;22.50;84.50;;;24.33;41.91;98020.28;10384132;28;20233;-66
2023/07/08 05:27:08;;;;;;;7.95;7.05;;;23.10;80.40;;;24.87;41.10;98031.84;10376827;28;20929;-66
2023/07/08 05:32:11;;;;;;;7.53;6.80;;;23.30;80.30;;;24.90;40.39;98034.47;10383103;28;20230;-66
2023/07/08 05:37:15;;;;;;;7.95;6.78;;;23.40;79.10;;;25.07;40.15;98017.06;10392791;28;20233;-66
2023/07/08 05:42:20;;;;;;;7.68;6.88;;;23.20;79.70;;;24.40;41.89;98017.66;10394845;28;20244;-66
2023/07/08 05:47:23;;;;;;;6.90;6.20;;;22.40;83.00;;;23.77;43.83;98017.28;10395275;28;20229;-66
2023/07/08 05:52:26;;;;;;;8.05;6.88;;;22.00;85.20;;;23.36;45.71;98022.16;10397265;28;20226;-66
2023/07/08 05:57:31;;;;;;;7.78;6.97;;;21.70;88.10;;;23.13;46.29;98022.81;10399918;28;20307;-65
2023/07/08 06:02:34;;;;;;;7.53;6.75;;;21.60;88.00;;;23.31;46.53;98024.72;10399883;28;20593;-66
2023/07/08 06:07:37;;;;;;;8.50;7.70;;;21.90;88.10;;;23.43;45.67;98052.66;10400803;28;20225;-66
2023/07/08 06:12:42;;;;;;;8.27;7.40;;;21.90;86.90;;;23.37;46.43;98052.59;10397345;28;20371;-66
2023/07/08 06:17:45;;;;;;;7.72;6.97;;;22.00;88.10;;;23.94;45.92;98055.72;10403072;28;20701;-66
2023/07/08 06:22:49;;;;;;;8.35;6.88;;;22.50;87.00;;;24.85;43.72;98057.97;10400537;28;20721;-66
2023/07/08 06:27:57;;;;;;;7.65;6.88;;;23.30;84.90;;;25.49;44.99;98057.25;10397060;28;20673;-66
2023/07/08 06:33:00;;;;;;;7.80;6.68;;;23.60;88.90;;;26.03;43.90;98060.78;10397040;28;20578;-66
2023/07/08 06:38:03;;;;;;;6.70;6.10;;;24.30;86.20;;;26.96;43.30;98061.41;10390253;28;20701;-67
2023/07/08 06:43:08;;;;;;;7.75;7.05;;;25.10;86.40;;;28.56;39.11;98058.41;10415170;23;20301;-65
2023/07/08 06:48:11;;;;;;;7.53;6.82;;;26.50;80.80;;;29.17;37.20;98073.44;10354093;28;20315;-65
2023/07/08 06:53:15;;;;;;;7.90;7.20;;;26.90;78.20;;;28.84;38.11;98089.63;10358464;28;20315;-65
2023/07/08 06:58:19;;;;;;;8.30;7.50;;;26.40;79.00;;;28.34;38.63;98088.44;10359873;28;20295;-65
2023/07/08 07:03:22;;;;;;;8.48;7.20;;;26.20;79.50;;;27.66;40.06;98094.25;10358567;28;20229;-65
2023/07/08 07:08:25;;;;;;;7.97;7.18;;;25.50;81.00;;;27.36;40.95;98113.72;10356876;28;20238;-64
2023/07/08 07:13:30;;;;;;;8.18;7.38;;;25.30;82.20;;;27.36;40.83;98114.59;10358104;28;20241;-65
2023/07/08 07:18:33;;;;;;;8.52;7.70;;;25.60;80.80;;;28.15;38.53;98121.91;10356237;28;20229;-65
2023/07/08 07:23:36;;;;;;;8.05;7.22;;;26.70;77.00;;;28.69;35.66;98124.91;10358386;28;20230;-65
2023/07/08 07:28:41;;;;;;;8.30;6.85;;;27.00;72.50;;;28.98;35.82;98119.28;10357968;28;20839;-65
2023/07/08 07:33:44;;;;;;;8.52;7.70;;;27.40;71.50;;;28.85;34.90;98118.59;10358964;28;20236;-65
2023/07/08 07:38:47;;;;;;;7.95;6.97;;;27.30;70.00;;;29.15;34.40;98117.34;10357579;28;20252;-65
2023/07/08 07:43:51;;;;;;;9.43;7.80;;;27.40;70.40;;;29.06;34.82;98124.50;10358613;28;20744;-65
2023/07/08 07:48:54;;;;;;;9.43;6.95;;;27.40;70.50;;;28.91;34.15;98133.44;10357206;28;20237;-65
2023/07/08 07:53:58;;;;;;;8.05;7.25;;;27.30;68.50;;;28.57;34.46;98138.22;10355481;28;20237;-65
2023/07/08 07:59:03;;;;;;;7.80;7.00;;;26.90;68.70;;;28.60;34.10;98136.41;10341302;28;20218;-65
2023/07/08 08:04:06;;;;;;;7.65;6.85;;;27.00;69.00;;;28.47;34.85;98142.66;10360380;28;20284;-65
2023/07/08 08:09:09;;;;;;;8.52;6.80;;;27.00;69.20;;;28.45;34.74;98136.56;10359344;28;20237;-65
2023/07/08 08:14:14;;;;;;;7.50;6.18;;;26.90;68.90;;;28.42;34.88;98136.59;10359303;28;20234;-65
2023/07/08 08:19:18;;;;;;;7.35;6.40;;;27.10;69.70;;;28.26;35.89;98134.06;10347673;28;20242;-65
2023/07/08 08:24:21;;;;;;;7.50;6.30;;;26.90;70.70;;;28.54;35.53;98144.38;10365931;28;20555;-65
2023/07/08 08:29:25;;;;;;;7.90;6.95;;;27.10;69.60;;;28.87;34.67;98147.50;10365853;28;20580;-64
2023/07/08 08:34:29;;;;;;;7.22;6.32;;;27.50;68.70;;;29.53;34.34;98151.94;10364989;28;20237;-65
2023/07/08 08:39:32;;;;;;;6.95;6.20;;;28.50;67.10;;;30.48;32.19;98154.00;10363669;28;20598;-65
2023/07/08 08:44:37;;;;;;;7.60;6.35;;;29.70;64.00;;;31.58;30.70;98150.94;10368423;28;20241;-66
2023/07/08 08:49:45;;;;;;;7.30;6.60;;;31.10;61.50;;;31.86;29.66;98148.53;10361826;28;20232;-65
2023/07/08 08:54:51;;;;;;;6.82;6.10;;;31.00;60.50;;;32.27;29.43;98149.31;10359955;28;20229;-65
2023/07/08 08:59:58;;;;;;;7.25;6.50;;;31.60;59.90;;;32.84;28.39;98149.63;10351229;28;20265;-66
2023/07/08 09:05:07;;;;;;;7.10;6.25;;;32.60;57.60;;;32.79;29.03;98141.78;10349740;28;20541;-66
2023/07/08 09:10:22;;;;;;;7.93;6.68;;;32.20;58.70;;;33.03;27.63;98150.00;10344912;28;20583;-66
2023/07/08 09:15:28;;;;;;;6.70;6.00;;;32.30;57.80;;;32.83;28.55;98147.88;10354445;28;20233;-66
2023/07/08 09:20:32;;;;;;;7.22;6.53;;;31.90;58.30;;;32.98;28.60;98142.16;10352972;28;20230;-65
2023/07/08 09:25:42;;;;;;;6.45;5.85;;;32.10;58.10;;;33.45;27.90;98136.38;10358728;28;20222;-66
2023/07/08 09:30:49;;;;;;;7.20;6.50;;;32.70;57.30;;;33.52;28.07;98130.88;10352855;28;20501;-66
2023/07/08 09:35:53;;;;;;;6.82;6.10;;;32.90;57.30;;;33.72;28.14;98124.09;10356912;28;20229;-66
2023/07/08 09:40:56;;;;;;;7.85;6.38;;;33.30;57.10;;;33.95;26.76;98137.47;10352318;28;20248;-66
2023/07/08 09:46:01;;;;;;;6.72;6.00;;;33.40;55.90;;;33.32;27.93;98135.91;10358485;28;20225;-66
2023/07/08 09:51:07;;;;;;;6.40;5.78;;;32.40;57.10;;;33.11;27.45;98142.69;10340326;28;20317;-66
2023/07/08 09:56:10;;;;;;;7.22;5.43;;;31.80;57.70;;;32.75;27.94;98146.31;10361073;28;20226;-66
2023/07/08 10:01:23;;;;;;;5.28;4.60;;;31.50;57.30;;;32.58;28.49;98151.19;10355813;28;20705;-66
2023/07/08 10:06:30;;;;;;;6.47;5.72;;;31.30;58.30;;;32.39;29.96;98153.41;10343626;28;20308;-66
2023/07/08 10:11:39;;;;;;;7.65;6.35;;;31.10;60.70;;;32.35;30.99;98150.91;10347657;28;20229;-66
2023/07/08 10:16:43;;;;;;;6.53;5.93;;;31.00;61.70;;;31.71;31.89;98143.63;10351627;28;20221;-66
2023/07/08 10:21:58;;;;;;;8.20;6.25;;;30.30;63.00;;;31.36;32.14;98149.69;10354131;28;20313;-66
2023/07/08 10:27:10;;;;;;;6.50;5.82;;;30.10;63.60;;;31.13;32.31;98151.00;10355439;28;20961;-67
2023/07/08 10:32:30;;;;;;;14.45;6.50;;;29.80;63.80;;;30.96;32.81;98147.84;10338425;28;20742;-66
2023/07/08 10:37:47;;;;;;;9.48;6.60;;;29.80;64.20;;;31.07;32.69;98150.28;10351580;28;20229;-66
2023/07/08 10:43:36;;;;;;;5.18;4.28;;;29.80;63.90;;;30.81;32.77;98156.94;10356352;28;20233;-66
2023/07/08 10:49:11;;;;;;;5.65;4.82;;;29.60;64.00;;;30.30;33.45;98163.13;10351101;28;20221;-66
2023/07/08 10:54:34;;;;;;;5.13;4.63;;;29.30;64.60;;;30.39;33.82;98164.75;10355509;28;20232;-66
2023/07/08 10:59:52;;;;;;;5.18;4.68;;;29.30;65.20;;;30.47;33.76;98152.25;10356845;28;20218;-66
2023/07/08 11:05:11;;;;;;;4.80;4.25;;;29.50;64.90;;;30.99;32.21;98153.06;10355776;28;20236;-66
2023/07/08 11:10:19;;;;;;;5.75;4.05;;;30.00;62.30;;;31.55;31.49;98145.72;10356840;28;20260;-66
2023/07/08 11:15:30;;;;;;;4.43;3.95;;;30.70;61.20;;;31.64;29.63;98142.00;10354892;28;20751;-66
2023/07/08 11:20:41;;;;;;;4.40;3.60;;;31.00;58.80;;;31.49;30.31;98137.09;10354256;28;20221;-66
2023/07/08 11:25:46;;;;;;;4.03;3.60;;;30.80;59.10;;;31.40;30.58;98131.09;10344213;28;20222;-66
2023/07/08 11:30:52;;;;;;;4.07;2.45;;;30.80;59.30;;;31.41;28.66;98134.59;10351306;28;20226;-66
2023/07/08 11:35:58;;;;;;;4.03;2.88;;;30.80;56.70;;;31.51;28.66;98128.22;10352922;28;20767;-66
2023/07/08 11:41:04;;;;;;;3.47;2.97;;;30.90;57.10;;;31.54;28.96;98119.34;10356909;28;20232;-67
2023/07/08 11:46:08;;;;;;;3.03;2.72;;;30.80;57.10;;;31.48;29.06;98124.75;10357371;28;20226;-66
2023/07/08 11:51:20;;;;;;;3.38;2.95;;;30.70;57.60;;;31.29;29.54;98114.56;10343249;28;20236;-66
2023/07/08 11:56:25;;;;;;;3.42;3.03;;;30.50;57.90;;;31.64;29.12;98112.94;10355521;28;20229;-66
2023/07/08 12:01:33;;;;;;;3.78;2.95;;;30.80;57.60;;;31.53;28.65;98112.31;10355221;28;20603;-66
2023/07/08 12:07:03;;;;;;;3.08;2.70;;;30.70;57.10;;;31.72;28.10;98112.75;10361356;28;20548;-66
2023/07/08 12:12:17;;;;;;;2.88;2.60;;;30.90;56.70;;;31.71;27.63;98109.25;10346431;28;20265;-67
2023/07/08 12:17:21;;;;;;;3.17;2.70;;;30.90;55.90;;;31.56;28.12;98099.03;10363810;28;20563;-66
2023/07/08 12:22:25;;;;;;;2.38;2.15;;;30.80;56.40;;;31.07;28.55;98097.44;10363925;28;20237;-66
2023/07/08 12:27:30;;;;;;;3.95;2.72;;;30.30;56.80;;;31.40;27.94;98088.81;10359297;28;20226;-66
2023/07/08 12:32:35;;;;;;;2.97;2.35;;;30.80;55.60;;;31.31;28.74;98086.34;10366360;28;20347;-66
2023/07/08 12:37:40;;;;;;;2.45;2.20;;;30.60;56.70;;;31.42;27.61;98081.72;10367549;28;20228;-66
2023/07/08 12:42:49;;;;;;;3.40;2.25;;;30.70;55.50;;;31.53;27.56;98083.22;10364586;28;20232;-66
2023/07/08 12:47:52;;;;;;;2.50;2.30;;;30.90;55.30;;;31.27;27.79;98079.38;10344236;28;20649;-65
2023/07/08 12:53:03;;;;;;;3.58;2.38;;;30.70;55.50;;;31.32;28.28;98077.50;10359217;28;20237;-67
2023/07/08 12:58:13;;;;;;;2.50;2.30;;;30.60;56.60;;;31.65;27.66;98080.31;10354479;28;20225;-67
2023/07/08 13:03:21;;;;;;;4.00;2.33;;;30.90;55.70;;;31.53;28.49;98081.44;10355038;28;20624;-66
2023/07/08 13:08:31;;;;;;;3.05;2.35;;;31.00;55.90;;;31.63;28.47;98075.06;10349392;28;20329;-66
2023/07/08 13:13:39;;;;;;;2.60;2.40;;;31.00;56.10;;;31.73;28.05;98088.03;10359124;28;20226;-67
2023/07/08 13:18:43;;;;;;;3.35;2.28;;;31.00;55.90;;;31.59;28.78;98076.06;10353066;28;20229;-66
2023/07/08 13:23:48;;;;;;;5.35;4.85;;;31.00;56.50;;;31.86;28.07;98071.84;10343470;28;20324;-66
2023/07/08 13:28:51;;;;;;;3.15;2.50;;;31.20;55.90;;;32.05;27.76;98074.03;10351723;28;20236;-66
2023/07/08 13:33:57;;;;;;;4.43;3.58;;;31.40;56.10;;;31.85;28.17;98061.31;10352207;28;20663;-66
2023/07/08 13:39:06;;;;;;;3.78;2.63;;;31.10;56.30;;;32.00;28.00;98070.66;10351813;28;20229;-66
2023/07/08 13:44:10;;;;;;;3.53;2.78;;;31.20;56.10;;;32.05;27.97;98055.53;10353454;28;20247;-65
2023/07/08 13:49:16;;;;;;;4.00;2.85;;;31.20;55.90;;;31.89;28.09;98062.09;10353050;28;20228;-65
2023/07/08 13:54:26;;;;;;;3.28;2.70;;;31.00;56.20;;;31.90;28.35;98047.97;10358579;28;20242;-67
2023/07/08 13:59:29;;;;;;;4.07;2.65;;;31.00;56.50;;;31.94;28.58;98044.38;10347159;28;20300;-67
2023/07/08 14:04:35;;;;;;;3.67;3.10;;;31.10;56.70;;;31.85;28.83;98038.38;10355864;28;20628;-66
2023/07/08 14:09:40;;;;;;;3.70;2.70;;;31.00;56.80;;;31.99;28.58;98042.47;10356547;28;20246;-65
2023/07/08 14:14:43;;;;;;;4.07;3.00;;;31.20;56.70;;;32.05;27.44;98037.00;10358500;28;20226;-66
2023/07/08 14:19:46;;;;;;;3.67;2.72;;;31.20;55.20;;;32.44;27.49;98034.19;10344215;28;20225;-66
2023/07/08 14:24:51;;;;;;;3.53;2.55;;;31.60;55.70;;;32.48;27.74;98030.56;10358817;28;20225;-66
2023/07/08 14:29:54;;;;;;;3.30;2.47;;;31.60;55.50;;;32.41;27.17;98042.22;10353983;28;20238;-66
2023/07/08 14:35:00;;;;;;;3.97;2.60;;;31.60;55.10;;;32.16;27.48;98029.66;10359516;28;20747;-67
2023/07/08 14:40:21;;;;;;;3.15;2.67;;;31.50;55.20;;;32.39;27.26;98025.50;10353471;28;20608;-65
2023/07/08 14:45:25;;;;;;;2.90;2.60;;;31.60;54.80;;;32.34;26.77;98022.13;10346432;28;20698;-67
2023/07/08 14:50:29;;;;;;;3.60;2.40;;;31.50;54.80;;;32.24;27.43;98029.47;10355504;28;20786;-67
2023/07/08 14:55:34;;;;;;;3.53;2.75;;;31.40;55.10;;;32.40;26.68;98024.63;10346155;28;20230;-65
2023/07/08 15:00:38;;;;;;;3.28;2.70;;;31.60;54.40;;;32.38;26.54;98029.94;10351214;28;20230;-67
2023/07/08 15:05:42;;;;;;;3.03;2.70;;;31.50;54.60;;;32.34;27.33;98022.13;10348598;28;20791;-65
2023/07/08 15:10:50;;;;;;;3.15;2.85;;;31.30;55.20;;;32.04;27.71;98022.91;10350407;28;20699;-65
2023/07/08 15:15:54;;;;;;;3.67;2.58;;;31.00;55.80;;;31.85;28.41;98019.88;10345209;28;20238;-65
2023/07/08 15:20:57;;;;;;;3.17;2.75;;;30.80;57.00;;;31.60;29.47;98014.34;10338918;28;20229;-66
2023/07/08 15:26:02;;;;;;;3.40;2.78;;;30.50;57.90;;;31.49;28.72;98011.09;10342387;28;20316;-66
2023/07/08 15:31:05;;;;;;;7.80;5.95;;;30.40;56.40;;;31.50;27.63;98004.03;10345564;28;20686;-66
2023/07/08 15:36:10;;;;;;;3.47;3.15;;;30.50;55.60;;;31.61;27.94;98005.50;10349309;28;20226;-66
2023/07/08 15:41:23;;;;;;;3.47;2.55;;;30.60;55.80;;;31.89;28.21;98006.56;10346361;28;20222;-66
2023/07/08 15:46:32;;;;;;;3.83;3.08;;;30.90;55.70;;;32.42;26.69;98002.50;10352156;28;20702;-67
2023/07/08 15:51:35;;;;;;;3.90;3.10;;;31.50;55.30;;;32.68;27.13;97999.13;10351859;28;20276;-65
2023/07/08 15:56:41;;;;;;;3.42;2.90;;;32.00;54.30;;;32.70;26.67;97999.94;10352883;28;20252;-68
2023/07/08 16:01:44;;;;;;;4.30;2.80;;;31.90;54.00;;;32.71;27.00;97995.53;10350097;28;20253;-66
2023/07/08 16:06:48;;;;;;;7.28;2.88;;;31.90;54.50;;;32.70;26.80;98004.34;10342628;28;20222;-66
2023/07/08 16:11:52;;;;;;;3.58;3.15;;;32.00;53.90;;;32.55;26.90;97999.53;10336626;28;20592;-66
2023/07/08 16:16:55;;;;;;;3.90;3.25;;;31.80;54.00;;;32.11;27.31;97989.25;10342329;28;20640;-67
2023/07/08 16:21:59;;;;;;;3.33;2.75;;;31.30;54.50;;;32.03;28.06;97993.88;10347242;28;20229;-65
2023/07/08 16:27:04;;;;;;;5.30;3.28;;;31.10;55.90;;;32.24;27.59;97995.06;10349833;28;20710;-67
2023/07/08 16:32:12;;;;;;;5.72;3.42;;;31.30;55.70;;;32.38;27.51;97997.31;10345756;28;20601;-66
2023/07/08 16:37:15;;;;;;;3.85;2.83;;;31.60;55.50;;;32.28;27.81;97997.59;10351240;28;20230;-66
2023/07/08 16:42:19;;;;;;;5.35;3.40;;;31.50;55.40;;;32.09;28.46;98001.66;10354541;28;20316;-67
2023/07/08 16:47:22;;;;;;;4.32;3.38;;;31.30;56.30;;;32.07;28.83;98004.31;10360368;28;20312;-67
2023/07/08 16:52:27;;;;;;;4.43;3.53;;;31.20;57.00;;;31.91;29.09;98007.41;10343411;28;20250;-67
2023/07/08 16:57:31;;;;;;;3.45;3.00;;;31.00;57.30;;;31.72;29.66;97997.28;10363028;28;20226;-66
2023/07/08 17:02:36;;;;;;;4.43;3.30;;;30.70;57.90;;;31.66;29.81;97992.16;10363372;28;20325;-66
2023/07/08 17:07:39;;;;;;;5.15;3.45;;;30.70;57.80;;;31.68;29.43;97990.38;10357941;28;20253;-67
2023/07/08 17:12:44;;;;;;;4.25;3.30;;;30.70;57.50;;;31.73;29.45;97987.59;10354688;28;20228;-66
2023/07/08 17:17:51;;;;;;;3.85;3.45;;;30.70;57.70;;;31.69;29.70;97992.09;10363187;28;20225;-66
2023/07/08 17:22:54;;;;;;;3.53;3.15;;;30.60;58.20;;;31.47;30.15;97991.75;10359523;28;20233;-66
2023/07/08 17:27:58;;;;;;;4.72;3.35;;;30.40;58.50;;;31.32;29.88;97985.03;10361334;28;20236;-64
2023/07/08 17:33:03;;;;;;;3.63;2.80;;;30.30;58.60;;;31.20;30.55;97985.34;10346921;28;20257;-66
2023/07/08 17:38:11;;;;;;;3.38;3.08;;;30.20;59.00;;;31.39;29.94;97989.31;10358452;28;20218;-66
2023/07/08 17:43:16;;;;;;;4.38;2.90;;;30.30;58.40;;;31.40;30.23;97991.03;10357165;28;20257;-66
2023/07/08 17:48:25;;;;;;;3.45;2.95;;;30.30;58.60;;;31.26;30.64;97998.41;10361150;28;20337;-66
2023/07/08 17:53:28;;;;;;;3.50;3.20;;;30.20;59.00;;;31.06;30.44;98003.28;10359969;28;20674;-66
2023/07/08 17:58:34;;;;;;;4.03;2.80;;;30.10;58.90;;;30.97;30.90;98007.00;10364170;28;20229;-66
2023/07/08 18:03:38;;;;;;;4.00;2.85;;;30.00;58.90;;;31.07;30.86;98013.78;10358479;28;20231;-66
2023/07/08 18:08:42;;;;;;;3.45;2.85;;;30.00;59.00;;;30.83;31.82;98019.63;10353467;28;20245;-66
2023/07/08 18:13:48;;;;;;;3.30;2.67;;;29.80;59.80;;;30.89;31.52;98024.78;10351979;28;20701;-66
2023/07/08 18:18:52;;;;;;;2.88;2.58;;;29.80;60.00;;;30.64;31.93;98029.69;10355001;28;20805;-65
2023/07/08 18:23:56;;;;;;;4.65;2.95;;;29.60;60.20;;;30.64;31.17;98045.50;10352389;28;20230;-66
2023/07/08 18:29:01;;;;;;;2.95;2.63;;;29.60;59.50;;;30.33;31.58;98030.28;10346468;28;20480;-66
2023/07/08 18:34:07;;;;;;;3.58;2.50;;;29.30;60.10;;;30.28;32.16;98045.34;10352632;28;20340;-65
2023/07/08 18:39:11;;;;;;;3.30;2.40;;;29.20;60.30;;;30.09;32.50;98056.19;10352837;28;20700;-66
2023/07/08 18:44:24;;;;;;;4.00;2.53;;;29.00;61.20;;;29.96;33.13;98054.69;10353257;28;20256;-66
2023/07/08 18:49:29;;;;;;;2.55;2.33;;;28.90;61.70;;;29.77;33.25;98058.53;10353804;28;20704;-65
2023/07/08 18:54:32;;;;;;;3.65;2.60;;;28.70;62.60;;;29.49;34.80;98066.84;10347035;28;20345;-66
2023/07/08 18:59:39;;;;;;;3.35;2.60;;;28.40;64.50;;;29.11;35.93;98070.03;10344050;28;20231;-66
2023/07/08 19:04:42;;;;;;;3.83;2.75;;;28.00;67.40;;;28.73;37.40;98066.97;10345028;28;20234;-66
2023/07/08 19:09:45;;;;;;;7.38;3.47;;;27.60;68.80;;;28.46;38.00;98068.16;10342009;28;20253;-66
2023/07/08 19:14:49;;;;;;;3.30;3.00;;;27.30;71.10;;;28.14;38.83;98063.22;10345301;28;20231;-66
2023/07/08 19:19:53;;;;;;;3.95;3.58;;;27.00;71.40;;;27.88;39.19;98073.09;10350392;28;20226;-66
2023/07/08 19:24:56;;;;;;;3.35;3.00;;;26.70;71.70;;;27.56;39.60;98075.06;10345433;28;20234;-66
2023/07/08 19:30:01;;;;;;;4.70;3.08;;;26.40;71.70;;;27.37;39.92;98076.94;10345281;28;20765;-66
2023/07/08 19:35:05;;;;;;;3.58;3.00;;;26.30;72.00;;;27.16;41.23;98091.06;10345242;28;20305;-65
2023/07/08 19:40:13;;;;;;;4.72;3.13;;;26.00;74.20;;;26.90;42.00;98098.19;10344425;28;20595;-66
2023/07/08 19:45:21;;;;;;;3.80;3.10;;;25.80;75.70;;;26.62;43.42;98095.66;10346381;28;20221;-66
2023/07/08 19:50:28;;;;;;;3.80;3.15;;;25.50;77.70;;;26.28;43.63;98100.94;10342740;28;20237;-66
2023/07/08 19:55:32;;;;;;;3.40;2.92;;;25.20;77.70;;;26.11;43.72;98105.31;10344352;28;20360;-65
2023/07/08 20:00:39;;;;;;;3.88;3.17;;;25.00;79.10;;;25.93;45.01;98108.84;10343354;28;20225;-66
2023/07/08 20:05:43;;;;;;;3.45;2.90;;;24.80;80.20;;;25.72;45.28;98114.88;10345347;28;20698;-65
2023/07/08 20:10:47;;;;;;;5.50;5.00;;;24.60;80.90;;;25.50;47.39;98121.84;10327026;28;22270;-66
2023/07/08 20:15:52;;;;;;;4.90;3.58;;;24.30;84.10;;;25.16;46.89;98131.38;10341531;28;20750;-66
2023/07/08 20:20:57;;;;;;;5.45;3.22;;;24.10;83.50;;;24.91;47.12;98130.34;10350654;28;20226;-66
2023/07/08 20:26:03;;;;;;;3.42;3.13;;;23.90;83.80;;;24.79;47.49;98140.78;10352006;28;20718;-66
2023/07/08 20:31:08;;;;;;;4.22;3.58;;;23.80;83.90;;;24.73;48.60;98149.44;10350084;28;20611;-66
2023/07/08 20:36:14;;;;;;;3.85;3.40;;;23.70;86.00;;;24.45;48.43;98145.78;10352922;28;20619;-65
2023/07/08 20:41:17;;;;;;;3.83;3.30;;;23.40;85.70;;;24.16;49.53;98149.03;10351467;28;20647;-66
2023/07/08 20:46:25;;;;;;;3.47;3.17;;;23.20;87.20;;;24.18;49.22;98159.50;10349144;28;20234;-66
2023/07/08 20:51:30;;;;;;;4.05;3.08;;;23.10;87.10;;;23.93;50.11;98161.91;10358574;28;20312;-65
2023/07/08 20:56:34;;;;;;;3.78;3.20;;;23.00;87.90;;;24.01;50.12;98164.59;10356626;28;20572;-65
2023/07/08 21:01:38;;;;;;;4.38;3.10;;;23.00;88.50;;;23.92;50.99;98177.56;10347445;28;20250;-64
2023/07/08 21:06:41;;;;;;;3.50;3.20;;;22.90;90.10;;;23.74;50.63;98173.91;10358126;28;20663;-65
2023/07/08 21:11:44;;;;;;;3.35;3.00;;;22.70;89.20;;;23.63;49.48;98165.06;10354531;28;20234;-65